^^
Grace C. Lehan Memorial Weather Station Historical Data
Daily Summary for February 6, 2022 Units:  Both    English   Metric
Daily Weekly Monthly Yearly
  High: Low: Average:
Temperature: 26.5 °F /  -3.1 °C 13.4 °F /  -10.3 °C 17.4 °F /  -8.1 °C
Dew Point: 9.9 °F /  -12.3 °C 5.2 °F /  -14.9 °C 6.7 °F /  -14.1 °C
Humidity: 76% 41.2% 63%
Wind Speed: 1.7mph /  2.7km/h - 0.3mph /  0.5km/h
Wind Gust: 11mph /  17.7km/h - -
Wind- - SW
Pressure: 30.66 in /  1038.1 hPa 30.52 in /  1033.4 hPa -
Precipitation: 0.00 in /  0 mm    
 
 
Tabular Data for February 6, 2022
Time Temperature Dew Point Pressure Wind Wind Speed Wind Gust Humidity Rainfall Rate (Hourly) solar
00:04 16.2 °F /  -8.8 °C 5.4 °F /  -14.8 °C 30.53in /  1033.7hPa NW 0.8mph /  1.3km/h 11mph /  17.7km/h 61.7% 0.00in /  0mm 0 W/m2
00:09 16.2 °F /  -8.8 °C 5.6 °F /  -14.7 °C 30.53in /  1033.7hPa Calm   4mph /  6.4km/h 62.3% 0.00in /  0mm 0 W/m2
00:14 16.2 °F /  -8.8 °C 5.8 °F /  -14.6 °C 30.52in /  1033.4hPa NW 1.7mph /  2.7km/h 6mph /  9.7km/h 63% 0.00in /  0mm 0 W/m2
00:19 16.1 °F /  -8.8 °C 5.7 °F /  -14.6 °C 30.53in /  1033.7hPa NW 0.9mph /  1.4km/h 6mph /  9.7km/h 63% 0.00in /  0mm 0 W/m2
00:24 16 °F /  -8.9 °C 5.6 °F /  -14.7 °C 30.53in /  1033.7hPa NW 0.7mph /  1.1km/h 6mph /  9.7km/h 63% 0.00in /  0mm 0 W/m2
00:29 15.9 °F /  -8.9 °C 5.6 °F /  -14.7 °C 30.54in /  1034.1hPa NW 1.2mph /  1.9km/h 6mph /  9.7km/h 63% 0.00in /  0mm 0 W/m2
00:34 15.9 °F /  -8.9 °C 5.8 °F /  -14.6 °C 30.55in /  1034.4hPa Calm   6mph /  9.7km/h 63.9% 0.00in /  0mm 0 W/m2
00:39 15.8 °F /  -9 °C 5.8 °F /  -14.6 °C 30.55in /  1034.4hPa NW 1.7mph /  2.7km/h 5mph /  8km/h 64% 0.00in /  0mm 0 W/m2
00:44 15.8 °F /  -9 °C 5.8 °F /  -14.6 °C 30.54in /  1034.1hPa Calm   5mph /  8km/h 64% 0.00in /  0mm 0 W/m2
00:49 15.7 °F /  -9.1 °C 5.9 °F /  -14.5 °C 30.55in /  1034.4hPa NW 0.4mph /  0.6km/h 5mph /  8km/h 64.6% 0.00in /  0mm 0 W/m2
00:54 15.6 °F /  -9.1 °C 6 °F /  -14.4 °C 30.54in /  1034.1hPa Calm   5mph /  8km/h 65% 0.00in /  0mm 0 W/m2
00:59 15.5 °F /  -9.2 °C 6 °F /  -14.4 °C 30.54in /  1034.1hPa Calm   5mph /  8km/h 65.2% 0.00in /  0mm 0 W/m2
01:04 15.5 °F /  -9.2 °C 6.2 °F /  -14.3 °C 30.54in /  1034.1hPa NW 0.2mph /  0.3km/h 5mph /  8km/h 66% 0.00in /  0mm 0 W/m2
01:09 15.4 °F /  -9.2 °C 6.1 °F /  -14.4 °C 30.55in /  1034.4hPa NW 1.7mph /  2.7km/h 5mph /  8km/h 66% 0.00in /  0mm 0 W/m2
01:14 15.4 °F /  -9.2 °C 5.8 °F /  -14.6 °C 30.55in /  1034.4hPa NW 1.5mph /  2.4km/h 6mph /  9.7km/h 65% 0.00in /  0mm 0 W/m2
01:19 15.4 °F /  -9.2 °C 5.8 °F /  -14.6 °C 30.54in /  1034.1hPa NW 0.3mph /  0.5km/h 6mph /  9.7km/h 65% 0.00in /  0mm 0 W/m2
01:24 15.4 °F /  -9.2 °C 5.8 °F /  -14.6 °C 30.55in /  1034.4hPa NW 0.1mph /  0.2km/h 6mph /  9.7km/h 65% 0.00in /  0mm 0 W/m2
01:29 15.4 °F /  -9.2 °C 5.7 °F /  -14.6 °C 30.55in /  1034.4hPa NW 0.5mph /  0.8km/h 6mph /  9.7km/h 65% 0.00in /  0mm 0 W/m2
01:34 15.3 °F /  -9.3 °C 5.7 °F /  -14.6 °C 30.55in /  1034.4hPa NW 0.3mph /  0.5km/h 6mph /  9.7km/h 65% 0.00in /  0mm 0 W/m2
01:39 15.3 °F /  -9.3 °C 5.5 °F /  -14.7 °C 30.55in /  1034.4hPa NW 0.6mph /  1km/h 5mph /  8km/h 64.7% 0.00in /  0mm 0 W/m2
01:44 15.3 °F /  -9.3 °C 5.3 °F /  -14.8 °C 30.56in /  1034.8hPa NW 0.1mph /  0.2km/h 5mph /  8km/h 64% 0.00in /  0mm 0 W/m2
01:49 15.2 °F /  -9.3 °C 5.2 °F /  -14.9 °C 30.56in /  1034.8hPa NW 0.1mph /  0.2km/h 5mph /  8km/h 64% 0.00in /  0mm 0 W/m2
01:54 15.2 °F /  -9.3 °C 5.3 °F /  -14.8 °C 30.56in /  1034.8hPa NW 0.6mph /  1km/h 5mph /  8km/h 64.4% 0.00in /  0mm 0 W/m2
01:59 15.2 °F /  -9.3 °C 5.4 °F /  -14.8 °C 30.56in /  1034.8hPa Calm   5mph /  8km/h 64.5% 0.00in /  0mm 0 W/m2
02:04 15.1 °F /  -9.4 °C 5.3 °F /  -14.8 °C 30.56in /  1034.8hPa Calm   5mph /  8km/h 64.6% 0.00in /  0mm 0 W/m2
02:09 15.1 °F /  -9.4 °C 5.6 °F /  -14.7 °C 30.56in /  1034.8hPa NW 0.1mph /  0.2km/h 3mph /  4.8km/h 65.4% 0.00in /  0mm 0 W/m2
02:14 15 °F /  -9.4 °C 5.7 °F /  -14.6 °C 30.56in /  1034.8hPa NW 0.1mph /  0.2km/h 3mph /  4.8km/h 66% 0.00in /  0mm 0 W/m2
02:19 15 °F /  -9.4 °C 5.7 °F /  -14.6 °C 30.56in /  1034.8hPa Calm   3mph /  4.8km/h 66% 0.00in /  0mm 0 W/m2
02:24 14.9 °F /  -9.5 °C 5.6 °F /  -14.7 °C 30.56in /  1034.8hPa NW 0.3mph /  0.5km/h 5mph /  8km/h 66% 0.00in /  0mm 0 W/m2
02:29 14.9 °F /  -9.5 °C 5.6 °F /  -14.7 °C 30.56in /  1034.8hPa NW 0.5mph /  0.8km/h 6mph /  9.7km/h 66% 0.00in /  0mm 0 W/m2
02:34 14.8 °F /  -9.6 °C 5.5 °F /  -14.7 °C 30.57in /  1035.1hPa NW 0.4mph /  0.6km/h 6mph /  9.7km/h 66% 0.00in /  0mm 0 W/m2
02:39 14.8 °F /  -9.6 °C 5.7 °F /  -14.6 °C 30.57in /  1035.1hPa NW 0.6mph /  1km/h 5mph /  8km/h 66.6% 0.00in /  0mm 0 W/m2
02:44 14.7 °F /  -9.6 °C 5.8 °F /  -14.6 °C 30.57in /  1035.1hPa NW 0.1mph /  0.2km/h 5mph /  8km/h 67% 0.00in /  0mm 0 W/m2
02:49 14.7 °F /  -9.6 °C 5.8 °F /  -14.6 °C 30.57in /  1035.1hPa NW 0.3mph /  0.5km/h 5mph /  8km/h 67% 0.00in /  0mm 0 W/m2
02:54 14.6 °F /  -9.7 °C 5.7 °F /  -14.6 °C 30.57in /  1035.1hPa Calm   5mph /  8km/h 67% 0.00in /  0mm 0 W/m2
02:59 14.6 °F /  -9.7 °C 5.7 °F /  -14.6 °C 30.56in /  1034.8hPa NW 0.1mph /  0.2km/h 5mph /  8km/h 67% 0.00in /  0mm 0 W/m2
03:04 14.6 °F /  -9.7 °C 5.9 °F /  -14.5 °C 30.56in /  1034.8hPa Calm   5mph /  8km/h 67.9% 0.00in /  0mm 0 W/m2
03:09 14.5 °F /  -9.7 °C 5.9 °F /  -14.5 °C 30.57in /  1035.1hPa NW 0.3mph /  0.5km/h 4mph /  6.4km/h 68% 0.00in /  0mm 0 W/m2
03:14 14.4 °F /  -9.8 °C 5.8 °F /  -14.6 °C 30.57in /  1035.1hPa Calm   4mph /  6.4km/h 68% 0.00in /  0mm 0 W/m2
03:19 14.4 °F /  -9.8 °C 5.8 °F /  -14.6 °C 30.57in /  1035.1hPa Calm   4mph /  6.4km/h 68% 0.00in /  0mm 0 W/m2
03:24 14.3 °F /  -9.8 °C 5.9 °F /  -14.5 °C 30.56in /  1034.8hPa NW 0.2mph /  0.3km/h 4mph /  6.4km/h 68.6% 0.00in /  0mm 0 W/m2
03:29 14.3 °F /  -9.8 °C 6 °F /  -14.4 °C 30.56in /  1034.8hPa Calm   4mph /  6.4km/h 68.8% 0.00in /  0mm 0 W/m2
03:34 14.3 °F /  -9.8 °C 5.7 °F /  -14.6 °C 30.57in /  1035.1hPa NW 0.3mph /  0.5km/h 4mph /  6.4km/h 68% 0.00in /  0mm 0 W/m2
03:39 14.3 °F /  -9.8 °C 6 °F /  -14.4 °C 30.57in /  1035.1hPa NW 0.6mph /  1km/h 5mph /  8km/h 68.9% 0.00in /  0mm 0 W/m2
03:44 14.3 °F /  -9.8 °C 5.8 °F /  -14.6 °C 30.57in /  1035.1hPa NW 0.2mph /  0.3km/h 5mph /  8km/h 68.2% 0.00in /  0mm 0 W/m2
03:49 14.3 °F /  -9.8 °C 6 °F /  -14.4 °C 30.57in /  1035.1hPa Calm   5mph /  8km/h 69% 0.00in /  0mm 0 W/m2
03:54 14.3 °F /  -9.8 °C 6 °F /  -14.4 °C 30.57in /  1035.1hPa NW 0.1mph /  0.2km/h 5mph /  8km/h 69% 0.00in /  0mm 0 W/m2
03:59 14.3 °F /  -9.8 °C 6 °F /  -14.4 °C 30.57in /  1035.1hPa NW 0.1mph /  0.2km/h 5mph /  8km/h 69% 0.00in /  0mm 0 W/m2
04:00 14.3 °F /  -9.8 °C 6 °F /  -14.4 °C 30.57in /  1035.1hPa Calm   5mph /  8km/h 69% 0.00in /  0mm 0 W/m2
04:09 14.2 °F /  -9.9 °C 5.9 °F /  -14.5 °C 30.57in /  1035.1hPa Calm     69% 0.00in /  0mm 0 W/m2
04:14 14.2 °F /  -9.9 °C 6.1 °F /  -14.4 °C 30.57in /  1035.1hPa NW 0.2mph /  0.3km/h 3mph /  4.8km/h 69.5% 0.00in /  0mm 0 W/m2
04:19 14.2 °F /  -9.9 °C 5.9 °F /  -14.5 °C 30.58in /  1035.4hPa NW 0.1mph /  0.2km/h 3mph /  4.8km/h 69.1% 0.00in /  0mm 0 W/m2
04:24 14.2 °F /  -9.9 °C 6 °F /  -14.4 °C 30.58in /  1035.4hPa Calm   3mph /  4.8km/h 69.3% 0.00in /  0mm 0 W/m2
04:29 14.2 °F /  -9.9 °C 6.2 °F /  -14.3 °C 30.58in /  1035.4hPa NW 0.1mph /  0.2km/h 3mph /  4.8km/h 70% 0.00in /  0mm 0 W/m2
04:34 14.1 °F /  -9.9 °C 6.1 °F /  -14.4 °C 30.58in /  1035.4hPa NW 0.7mph /  1.1km/h 5mph /  8km/h 70% 0.00in /  0mm 0 W/m2
04:39 14.1 °F /  -9.9 °C 6.1 °F /  -14.4 °C 30.58in /  1035.4hPa NW 0.1mph /  0.2km/h 5mph /  8km/h 70% 0.00in /  0mm 0 W/m2
04:44 14.1 °F /  -9.9 °C 6.1 °F /  -14.4 °C 30.58in /  1035.4hPa Calm   5mph /  8km/h 70% 0.00in /  0mm 0 W/m2
04:49 14.1 °F /  -9.9 °C 6.1 °F /  -14.4 °C 30.59in /  1035.8hPa NW 0.6mph /  1km/h 5mph /  8km/h 70% 0.00in /  0mm 0 W/m2
04:54 14 °F /  -10 °C 6 °F /  -14.4 °C 30.59in /  1035.8hPa Calm   5mph /  8km/h 70% 0.00in /  0mm 0 W/m2
04:59 14 °F /  -10 °C 6.1 °F /  -14.4 °C 30.59in /  1035.8hPa Calm   5mph /  8km/h 70.2% 0.00in /  0mm 0 W/m2
05:04 13.9 °F /  -10.1 °C 6 °F /  -14.4 °C 30.59in /  1035.8hPa Calm   5mph /  8km/h 70% 0.00in /  0mm 0 W/m2
05:09 13.9 °F /  -10.1 °C 5.9 °F /  -14.5 °C 30.59in /  1035.8hPa Calm     70% 0.00in /  0mm 0 W/m2
05:14 13.9 °F /  -10.1 °C 5.9 °F /  -14.5 °C 30.59in /  1035.8hPa Calm     70% 0.00in /  0mm 0 W/m2
05:19 13.8 °F /  -10.1 °C 6.1 °F /  -14.4 °C 30.59in /  1035.8hPa Calm     70.8% 0.00in /  0mm 0 W/m2
05:24 13.8 °F /  -10.1 °C 6.1 °F /  -14.4 °C 30.59in /  1035.8hPa Calm     71% 0.00in /  0mm 0 W/m2
05:29 13.7 °F /  -10.2 °C 6.3 °F /  -14.3 °C 30.60in /  1036.1hPa Calm   1mph /  1.6km/h 71.8% 0.00in /  0mm 0 W/m2
05:34 13.7 °F /  -10.2 °C 6.4 °F /  -14.2 °C 30.59in /  1035.8hPa NW 0.2mph /  0.3km/h 2mph /  3.2km/h 72% 0.00in /  0mm 0 W/m2
05:39 13.7 °F /  -10.2 °C 6.4 °F /  -14.2 °C 30.59in /  1035.8hPa NW 0.1mph /  0.2km/h 2mph /  3.2km/h 72.2% 0.00in /  0mm 0 W/m2
05:44 13.7 °F /  -10.2 °C 6.5 °F /  -14.2 °C 30.60in /  1036.1hPa NW 0.1mph /  0.2km/h 2mph /  3.2km/h 72.3% 0.00in /  0mm 0 W/m2
05:49 13.7 °F /  -10.2 °C 6.5 °F /  -14.2 °C 30.60in /  1036.1hPa Calm   2mph /  3.2km/h 72.5% 0.00in /  0mm 0 W/m2
05:54 13.7 °F /  -10.2 °C 6.7 °F /  -14.1 °C 30.60in /  1036.1hPa NW 0.2mph /  0.3km/h 2mph /  3.2km/h 73% 0.00in /  0mm 0 W/m2
05:59 13.7 °F /  -10.2 °C 6.7 °F /  -14.1 °C 30.60in /  1036.1hPa NW 0.3mph /  0.5km/h 4mph /  6.4km/h 73% 0.00in /  0mm 0 W/m2
06:04 13.6 °F /  -10.2 °C 6.6 °F /  -14.1 °C 30.61in /  1036.5hPa NNW 0.3mph /  0.5km/h 4mph /  6.4km/h 73% 0.00in /  0mm 0 W/m2
06:09 13.6 °F /  -10.2 °C 6.6 °F /  -14.1 °C 30.61in /  1036.5hPa Calm   3mph /  4.8km/h 73.2% 0.00in /  0mm 0 W/m2
06:14 13.6 °F /  -10.2 °C 6.7 °F /  -14.1 °C 30.61in /  1036.5hPa Calm   3mph /  4.8km/h 73.5% 0.00in /  0mm 0 W/m2
06:19 13.6 °F /  -10.2 °C 6.6 °F /  -14.1 °C 30.61in /  1036.5hPa Calm   3mph /  4.8km/h 73% 0.00in /  0mm 0 W/m2
06:24 13.5 °F /  -10.3 °C 6.7 °F /  -14.1 °C 30.61in /  1036.5hPa NNW 0.1mph /  0.2km/h 3mph /  4.8km/h 73.7% 0.00in /  0mm 0 W/m2
06:29 13.5 °F /  -10.3 °C 6.8 °F /  -14 °C 30.61in /  1036.5hPa NNW 0.1mph /  0.2km/h 3mph /  4.8km/h 74% 0.00in /  0mm 0 W/m2
06:34 13.5 °F /  -10.3 °C 6.8 °F /  -14 °C 30.61in /  1036.5hPa Calm   3mph /  4.8km/h 74% 0.00in /  0mm 0 W/m2
06:39 13.5 °F /  -10.3 °C 6.8 °F /  -14 °C 30.61in /  1036.5hPa Calm     74% 0.00in /  0mm 0 W/m2
06:44 13.4 °F /  -10.3 °C 6.9 °F /  -13.9 °C 30.61in /  1036.5hPa Calm     74.6% 0.00in /  0mm 0 W/m2
06:49 13.4 °F /  -10.3 °C 7 °F /  -13.9 °C 30.62in /  1036.8hPa Calm     75% 0.00in /  0mm 0 W/m2
06:54 13.4 °F /  -10.3 °C 7 °F /  -13.9 °C 30.61in /  1036.5hPa Calm     75% 0.00in /  0mm 0 W/m2
06:59 13.4 °F /  -10.3 °C 7 °F /  -13.9 °C 30.62in /  1036.8hPa Calm     75% 0.00in /  0mm 5 W/m2
07:04 13.4 °F /  -10.3 °C 7 °F /  -13.9 °C 30.62in /  1036.8hPa Calm     75% 0.00in /  0mm 9 W/m2
07:09 13.4 °F /  -10.3 °C 7.2 °F /  -13.8 °C 30.62in /  1036.8hPa NNW 0.1mph /  0.2km/h 2mph /  3.2km/h 75.6% 0.00in /  0mm 14 W/m2
07:14 13.4 °F /  -10.3 °C 7.3 °F /  -13.7 °C 30.63in /  1037.1hPa NNW 0.4mph /  0.6km/h 3mph /  4.8km/h 76% 0.00in /  0mm 16 W/m2
07:19 13.5 °F /  -10.3 °C 7.2 °F /  -13.8 °C 30.64in /  1037.5hPa NNW 0.4mph /  0.6km/h 3mph /  4.8km/h 75.6% 0.00in /  0mm 23 W/m2
07:24 13.6 °F /  -10.2 °C 7.2 °F /  -13.8 °C 30.64in /  1037.5hPa NNW 0.7mph /  1.1km/h 4mph /  6.4km/h 75% 0.00in /  0mm 28 W/m2
07:29 13.9 °F /  -10.1 °C 7.4 °F /  -13.7 °C 30.64in /  1037.5hPa NNW 0.1mph /  0.2km/h 4mph /  6.4km/h 75% 0.00in /  0mm 33 W/m2
07:34 14.2 °F /  -9.9 °C 7.8 °F /  -13.4 °C 30.63in /  1037.1hPa NNW 0.2mph /  0.3km/h 4mph /  6.4km/h 75% 0.00in /  0mm 53 W/m2
07:39 14.7 °F /  -9.6 °C 8.2 °F /  -13.2 °C 30.64in /  1037.5hPa NNW 0.2mph /  0.3km/h 2mph /  3.2km/h 74.9% 0.00in /  0mm 72 W/m2
07:44 15.1 °F /  -9.4 °C 8.3 °F /  -13.2 °C 30.64in /  1037.5hPa NNW 0.4mph /  0.6km/h 4mph /  6.4km/h 74% 0.00in /  0mm 74 W/m2
07:49 15.4 °F /  -9.2 °C 8.4 °F /  -13.1 °C 30.64in /  1037.5hPa NNW 1.5mph /  2.4km/h 4mph /  6.4km/h 73.3% 0.00in /  0mm 42 W/m2
07:54 15.5 °F /  -9.2 °C 8.2 °F /  -13.2 °C 30.64in /  1037.5hPa NNW 0.9mph /  1.4km/h 5mph /  8km/h 72.3% 0.00in /  0mm 98 W/m2
07:59 15.6 °F /  -9.1 °C 8.2 °F /  -13.2 °C 30.65in /  1037.8hPa NNE 0.2mph /  0.3km/h 5mph /  8km/h 72% 0.00in /  0mm 76 W/m2
08:00 15.7 °F /  -9.1 °C 8 °F /  -13.3 °C 30.64in /  1037.5hPa Calm   5mph /  8km/h 71% 0.00in /  0mm 39 W/m2
08:09 15.8 °F /  -9 °C 8 °F /  -13.3 °C 30.65in /  1037.8hPa NNE 0.6mph /  1km/h 3mph /  4.8km/h 70.7% 0.00in /  0mm 53 W/m2
08:14 15.7 °F /  -9.1 °C 7.1 °F /  -13.8 °C 30.65in /  1037.8hPa NNE 0.2mph /  0.3km/h 3mph /  4.8km/h 68.2% 0.00in /  0mm 70 W/m2
08:19 15.7 °F /  -9.1 °C 7.1 °F /  -13.8 °C 30.66in /  1038.1hPa NNE 0.1mph /  0.2km/h 3mph /  4.8km/h 68% 0.00in /  0mm 81 W/m2
08:24 15.9 °F /  -8.9 °C 7.4 °F /  -13.7 °C 30.65in /  1037.8hPa NNE 0.1mph /  0.2km/h 3mph /  4.8km/h 68.6% 0.00in /  0mm 174 W/m2
08:29 16.2 °F /  -8.8 °C 7.5 °F /  -13.6 °C 30.65in /  1037.8hPa NNE 0.4mph /  0.6km/h 3mph /  4.8km/h 68.1% 0.00in /  0mm 227 W/m2
08:34 16.7 °F /  -8.5 °C 7.9 °F /  -13.4 °C 30.65in /  1037.8hPa NNE 0.1mph /  0.2km/h 3mph /  4.8km/h 67.6% 0.00in /  0mm 292 W/m2
08:39 17.5 °F /  -8.1 °C 8.4 °F /  -13.1 °C 30.65in /  1037.8hPa NNE 0.1mph /  0.2km/h 2mph /  3.2km/h 66.9% 0.00in /  0mm 304 W/m2
08:44 18.4 °F /  -7.6 °C 8.8 °F /  -12.9 °C 30.65in /  1037.8hPa Calm   2mph /  3.2km/h 65.4% 0.00in /  0mm 320 W/m2
08:49 19.1 °F /  -7.2 °C 8.6 °F /  -13 °C 30.65in /  1037.8hPa Calm   2mph /  3.2km/h 63% 0.00in /  0mm 334 W/m2
08:54 19.8 °F /  -6.8 °C 8.4 °F /  -13.1 °C 30.66in /  1038.1hPa Calm   2mph /  3.2km/h 60.5% 0.00in /  0mm 348 W/m2
08:59 20.4 °F /  -6.4 °C 8.8 °F /  -12.9 °C 30.65in /  1037.8hPa NNE 0.2mph /  0.3km/h 3mph /  4.8km/h 60.3% 0.00in /  0mm 360 W/m2
09:04 21.2 °F /  -6 °C 9.9 °F /  -12.3 °C 30.65in /  1037.8hPa NNE 0.1mph /  0.2km/h 3mph /  4.8km/h 61.1% 0.00in /  0mm 373 W/m2
09:09 21.8 °F /  -5.7 °C 9 °F /  -12.8 °C 30.66in /  1038.1hPa NNE 0.1mph /  0.2km/h 2mph /  3.2km/h 57.2% 0.00in /  0mm 385 W/m2
09:14 22.2 °F /  -5.4 °C 9.1 °F /  -12.7 °C 30.66in /  1038.1hPa NNE 0.1mph /  0.2km/h 2mph /  3.2km/h 56.5% 0.00in /  0mm 397 W/m2
09:19 22.5 °F /  -5.3 °C 9.3 °F /  -12.6 °C 30.66in /  1038.1hPa NE 0.4mph /  0.6km/h 4mph /  6.4km/h 56.5% 0.00in /  0mm 410 W/m2
09:24 22.8 °F /  -5.1 °C 9.3 °F /  -12.6 °C 30.66in /  1038.1hPa ENE 0.5mph /  0.8km/h 4mph /  6.4km/h 55.5% 0.00in /  0mm 422 W/m2
09:29 23.2 °F /  -4.9 °C 9.5 °F /  -12.5 °C 30.66in /  1038.1hPa Calm   4mph /  6.4km/h 55.2% 0.00in /  0mm 432 W/m2
09:34 23.1 °F /  -4.9 °C 9 °F /  -12.8 °C 30.66in /  1038.1hPa NE 0.2mph /  0.3km/h 4mph /  6.4km/h 54% 0.00in /  0mm 443 W/m2
09:39 23.3 °F /  -4.8 °C 9.2 °F /  -12.7 °C 30.66in /  1038.1hPa Calm   3mph /  4.8km/h 54.3% 0.00in /  0mm 452 W/m2
09:44 23.1 °F /  -4.9 °C 7.6 °F /  -13.6 °C 30.66in /  1038.1hPa Calm   3mph /  4.8km/h 51% 0.00in /  0mm 469 W/m2
09:49 22.9 °F /  -5.1 °C 7.4 °F /  -13.7 °C 30.66in /  1038.1hPa ENE 0.2mph /  0.3km/h 3mph /  4.8km/h 50.9% 0.00in /  0mm 468 W/m2
09:54 22.5 °F /  -5.3 °C 6 °F /  -14.4 °C 30.66in /  1038.1hPa ENE 0.1mph /  0.2km/h 3mph /  4.8km/h 48.3% 0.00in /  0mm 459 W/m2
09:59 22.3 °F /  -5.4 °C 6.3 °F /  -14.3 °C 30.66in /  1038.1hPa Calm   3mph /  4.8km/h 49.5% 0.00in /  0mm 490 W/m2
10:04 22.6 °F /  -5.2 °C 7 °F /  -13.9 °C 30.66in /  1038.1hPa Calm   3mph /  4.8km/h 50.4% 0.00in /  0mm 504 W/m2
10:09 22.9 °F /  -5.1 °C 6.7 °F /  -14.1 °C 30.66in /  1038.1hPa Calm   1mph /  1.6km/h 49.2% 0.00in /  0mm 510 W/m2
10:14 23.1 °F /  -4.9 °C 7 °F /  -13.9 °C 30.66in /  1038.1hPa ENE 0.3mph /  0.5km/h 3mph /  4.8km/h 49.6% 0.00in /  0mm 512 W/m2
10:19 23.4 °F /  -4.8 °C 6.8 °F /  -14 °C 30.66in /  1038.1hPa ENE 0.3mph /  0.5km/h 3mph /  4.8km/h 48.5% 0.00in /  0mm 529 W/m2
10:24 23.6 °F /  -4.7 °C 6.6 °F /  -14.1 °C 30.65in /  1037.8hPa ENE 0.1mph /  0.2km/h 3mph /  4.8km/h 47.6% 0.00in /  0mm 529 W/m2
10:29 23.4 °F /  -4.8 °C 6.3 °F /  -14.3 °C 30.65in /  1037.8hPa ENE 0.1mph /  0.2km/h 3mph /  4.8km/h 47.3% 0.00in /  0mm 492 W/m2
10:34 23.1 °F /  -4.9 °C 6 °F /  -14.4 °C 30.65in /  1037.8hPa ENE 0.5mph /  0.8km/h 3mph /  4.8km/h 47.2% 0.00in /  0mm 497 W/m2
10:39 23.3 °F /  -4.8 °C 6.6 °F /  -14.1 °C 30.65in /  1037.8hPa ENE 0.7mph /  1.1km/h 3mph /  4.8km/h 48.2% 0.00in /  0mm 559 W/m2
10:44 23.9 °F /  -4.5 °C 7.5 °F /  -13.6 °C 30.65in /  1037.8hPa ENE 0.6mph /  1km/h 3mph /  4.8km/h 48.9% 0.00in /  0mm 568 W/m2
10:49 24.2 °F /  -4.3 °C 6.2 °F /  -14.3 °C 30.65in /  1037.8hPa East 0.9mph /  1.4km/h 4mph /  6.4km/h 45.6% 0.00in /  0mm 568 W/m2
10:54 24.1 °F /  -4.4 °C 6.4 °F /  -14.2 °C 30.65in /  1037.8hPa Calm   4mph /  6.4km/h 46.2% 0.00in /  0mm 573 W/m2
10:59 24.5 °F /  -4.2 °C 7.7 °F /  -13.5 °C 30.64in /  1037.5hPa East 0.8mph /  1.3km/h 4mph /  6.4km/h 48.2% 0.00in /  0mm 573 W/m2
11:04 24.8 °F /  -4 °C 7.5 °F /  -13.6 °C 30.64in /  1037.5hPa ENE 0.6mph /  1km/h 4mph /  6.4km/h 47.2% 0.00in /  0mm 584 W/m2
11:09 25 °F /  -3.9 °C 7.6 °F /  -13.6 °C 30.64in /  1037.5hPa Calm   4mph /  6.4km/h 46.9% 0.00in /  0mm 594 W/m2
11:14 25.5 °F /  -3.6 °C 8.6 °F /  -13 °C 30.64in /  1037.5hPa ENE 0.1mph /  0.2km/h 4mph /  6.4km/h 48.1% 0.00in /  0mm 573 W/m2
11:19 25.5 °F /  -3.6 °C 7.3 °F /  -13.7 °C 30.64in /  1037.5hPa ENE 0.7mph /  1.1km/h 4mph /  6.4km/h 45.5% 0.00in /  0mm 454 W/m2
11:24 25.3 °F /  -3.7 °C 7.6 °F /  -13.6 °C 30.63in /  1037.1hPa ENE 0.5mph /  0.8km/h 4mph /  6.4km/h 46.4% 0.00in /  0mm 434 W/m2
11:29 25.4 °F /  -3.7 °C 7.9 °F /  -13.4 °C 30.63in /  1037.1hPa Calm   4mph /  6.4km/h 46.9% 0.00in /  0mm 202 W/m2
11:34 25.4 °F /  -3.7 °C 7.7 °F /  -13.5 °C 30.63in /  1037.1hPa ENE 0.2mph /  0.3km/h 4mph /  6.4km/h 46.3% 0.00in /  0mm 230 W/m2
11:39 25.7 °F /  -3.5 °C 9 °F /  -12.8 °C 30.62in /  1036.8hPa Calm   2mph /  3.2km/h 48.8% 0.00in /  0mm 561 W/m2
11:44 26.1 °F /  -3.3 °C 8.6 °F /  -13 °C 30.62in /  1036.8hPa Calm   2mph /  3.2km/h 46.9% 0.00in /  0mm 316 W/m2
11:49 26.4 °F /  -3.1 °C 8.5 °F /  -13.1 °C 30.62in /  1036.8hPa Calm   2mph /  3.2km/h 46.3% 0.00in /  0mm 204 W/m2
11:54 26.5 °F /  -3.1 °C 8.2 °F /  -13.2 °C 30.62in /  1036.8hPa East 0.4mph /  0.6km/h 2mph /  3.2km/h 45.3% 0.00in /  0mm 148 W/m2
11:59 26.2 °F /  -3.2 °C 6.6 °F /  -14.1 °C 30.62in /  1036.8hPa East 0.4mph /  0.6km/h 2mph /  3.2km/h 42.6% 0.00in /  0mm 156 W/m2
12:09 25.5 °F /  -3.6 °C 6.2 °F /  -14.3 °C 30.61in /  1036.5hPa East 0.5mph /  0.8km/h 2mph /  3.2km/h 43.1% 0.00in /  0mm 345 W/m2
12:14 25.6 °F /  -3.6 °C 6.3 °F /  -14.3 °C 30.61in /  1036.5hPa East 0.1mph /  0.2km/h 2mph /  3.2km/h 43.1% 0.00in /  0mm 345 W/m2
12:19 26 °F /  -3.3 °C 6.3 °F /  -14.3 °C 30.61in /  1036.5hPa SSE 1.5mph /  2.4km/h 6mph /  9.7km/h 42.4% 0.00in /  0mm 255 W/m2
12:24 26.1 °F /  -3.3 °C 5.9 °F /  -14.5 °C 30.61in /  1036.5hPa SSE 0.4mph /  0.6km/h 6mph /  9.7km/h 41.6% 0.00in /  0mm 248 W/m2
12:29 26 °F /  -3.3 °C 5.6 °F /  -14.7 °C 30.60in /  1036.1hPa SSE 0.3mph /  0.5km/h 6mph /  9.7km/h 41.2% 0.00in /  0mm 107 W/m2
Hartford County Weather
Compliments of Weather Underground - 4 mb